Time;durP1;ratioP1;P1;durP2;ratioP2;P2;SDS_P1;SDS_P2;PMS_P1;PMS_P2;Temp;Humidity;BMP_temperature;BMP_pressure;BME280_temperature;BME280_humidity;BME280_pressure;Samples;Min_cycle;Max_cycle;Signal;HPM_P1;HPM_P2
2024/02/03 00:01:16;;;;;;;8.80;1.30;;;;;;;0.79;100.00;100238.80;104981;1254;71480;-56
2024/02/03 00:03:44;;;;;;;8.40;1.90;;;;;;;0.78;100.00;100234.03;104946;1255;59678;-55
2024/02/03 00:06:11;;;;;;;11.70;1.70;;;;;;;0.74;100.00;100229.10;105874;1257;60138;-56
2024/02/03 00:08:38;;;;;;;8.90;1.50;;;;;;;0.71;100.00;100227.50;104921;1260;73054;-51
2024/02/03 00:11:09;;;;;;;8.30;1.00;;;;;;;0.66;100.00;100223.64;105070;1255;65657;-54
2024/02/03 00:13:36;;;;;;;9.90;1.30;;;;;;;0.62;100.00;100211.97;105032;1254;71461;-54
2024/02/03 00:16:05;;;;;;;7.60;1.40;;;;;;;0.59;100.00;100213.39;104723;1258;60250;-54
2024/02/03 00:18:34;;;;;;;6.20;0.90;;;;;;;0.58;100.00;100209.52;105088;1260;59786;-54
2024/02/03 00:21:02;;;;;;;7.70;1.00;;;;;;;0.59;100.00;100208.11;105195;1255;73162;-54
2024/02/03 00:23:30;;;;;;;8.30;1.00;;;;;;;0.61;100.00;100201.20;105259;1254;65856;-54
2024/02/03 00:25:57;;;;;;;8.30;1.10;;;;;;;0.63;100.00;100193.42;104961;1254;73122;-54
2024/02/03 00:28:25;;;;;;;9.10;1.20;;;;;;;0.66;100.00;100187.79;104878;1257;59756;-52
2024/02/03 00:30:52;;;;;;;7.10;0.90;;;;;;;0.68;100.00;100180.88;105081;1254;60209;-55
2024/02/03 00:33:19;;;;;;;3.90;0.80;;;;;;;0.69;100.00;100184.58;105026;1260;73325;-54
2024/02/03 00:35:47;;;;;;;10.10;0.90;;;;;;;0.71;100.00;100182.28;105002;1261;66911;-55
2024/02/03 00:38:14;;;;;;;8.20;0.70;;;;;;;0.71;100.00;100179.81;104755;1257;71869;-54
2024/02/03 00:40:41;;;;;;;6.60;1.00;;;;;;;0.71;100.00;100172.75;104955;1253;59692;-54
2024/02/03 00:43:09;;;;;;;5.20;0.80;;;;;;;0.71;100.00;100173.45;105014;1258;59712;-54
2024/02/03 00:45:36;;;;;;;7.80;1.00;;;;;;;0.71;100.00;100170.80;104819;1254;71900;-54
2024/02/03 00:48:04;;;;;;;8.50;1.40;;;;;;;0.70;100.00;100162.50;104815;1254;65969;-54
2024/02/03 00:50:31;;;;;;;11.80;1.90;;;;;;;0.71;100.00;100156.50;104862;1260;72218;-55
2024/02/03 00:52:59;;;;;;;10.20;1.00;;;;;;;0.73;100.00;100149.08;104808;1268;62444;-54
2024/02/03 00:55:26;;;;;;;8.00;0.70;;;;;;;0.78;100.00;100150.48;104916;1258;60701;-54
2024/02/03 00:57:54;;;;;;;10.40;1.00;;;;;;;0.81;100.00;100146.77;104710;1260;72788;-54
2024/02/03 01:00:24;;;;;;;4.90;0.80;;;;;;;0.84;100.00;100145.87;104952;1255;65273;-54
2024/02/03 01:02:51;;;;;;;10.70;1.00;;;;;;;0.87;100.00;100144.08;104731;1254;73741;-54
2024/02/03 01:05:19;;;;;;;9.20;1.00;;;;;;;0.90;100.00;100147.97;104646;1257;59689;-55
2024/02/03 01:07:46;;;;;;;9.40;1.10;;;;;;;0.91;100.00;100155.57;104846;1259;59685;-54
2024/02/03 01:10:13;;;;;;;11.00;1.00;;;;;;;0.92;100.00;100157.16;104908;1254;73125;-56
2024/02/03 01:12:41;;;;;;;5.50;0.80;;;;;;;0.91;100.00;100149.39;104574;1254;67493;-55
2024/02/03 01:15:08;;;;;;;9.00;1.20;;;;;;;0.91;100.00;100147.80;104726;1258;72724;-55
2024/02/03 01:17:35;;;;;;;6.30;0.80;;;;;;;0.91;100.00;100140.20;104756;1260;60817;-55
2024/02/03 01:20:04;;;;;;;11.30;1.70;;;;;;;0.92;100.00;100136.84;104816;1256;59952;-54
2024/02/03 01:22:31;;;;;;;7.30;0.80;;;;;;;0.95;100.00;100118.78;108979;1254;73075;-55
2024/02/03 01:24:59;;;;;;;7.80;0.70;;;;;;;1.00;100.00;100111.72;106039;1258;67307;-55
2024/02/03 01:27:26;;;;;;;7.20;0.80;;;;;;;1.03;100.00;100103.56;104741;1253;72140;-55
2024/02/03 01:29:55;;;;;;;7.70;1.70;;;;;;;1.07;100.00;100101.43;104820;1258;60559;-55
2024/02/03 01:32:23;;;;;;;6.70;0.70;;;;;;;1.10;100.00;100090.98;104614;1254;60463;-54
2024/02/03 01:34:50;;;;;;;4.10;0.60;;;;;;;1.14;100.00;100082.83;104959;1254;72462;-54
2024/02/03 01:37:17;;;;;;;8.30;0.80;;;;;;;1.16;100.00;100076.11;104984;1255;65718;-54
2024/02/03 01:39:45;;;;;;;5.50;0.80;;;;;;;1.17;100.00;100065.15;105093;1260;72756;-54
2024/02/03 01:42:12;;;;;;;9.70;1.10;;;;;;;1.18;100.00;100065.33;105006;1259;60568;-54
2024/02/03 01:44:41;;;;;;;6.80;1.00;;;;;;;1.19;100.00;100063.20;104765;1260;59431;-53
2024/02/03 01:47:08;;;;;;;10.80;0.80;;;;;;;1.20;100.00;100070.27;105046;1258;73780;-55
2024/02/03 01:49:36;;;;;;;5.40;0.60;;;;;;;1.19;100.00;100062.67;104761;1263;67073;-55
2024/02/03 01:52:03;;;;;;;5.90;0.70;;;;;;;1.20;100.00;100052.93;107680;1257;71499;-53
2024/02/03 01:54:31;;;;;;;6.80;1.10;;;;;;;1.22;100.00;100052.73;105055;1255;60616;-54
2024/02/03 01:56:58;;;;;;;6.10;0.80;;;;;;;1.25;100.00;100043.70;105097;1259;60533;-55
2024/02/03 01:59:27;;;;;;;13.10;0.90;;;;;;;1.28;100.00;100035.91;104909;1253;74583;-54
2024/02/03 02:01:56;;;;;;;6.30;1.00;;;;;;;1.30;100.00;100037.66;105562;1254;67881;-52
2024/02/03 02:04:23;;;;;;;9.80;0.90;;;;;;;1.33;100.00;100038.89;105579;1260;72748;-54
2024/02/03 02:06:51;;;;;;;8.10;0.90;;;;;;;1.34;100.00;100030.92;106198;1254;60527;-55
2024/02/03 02:09:25;;;;;;;8.10;0.90;;;;;;;1.34;100.00;100020.86;104989;1254;61401;-54
2024/02/03 02:11:54;;;;;;;10.90;1.00;;;;;;;1.33;100.00;100018.20;105390;1255;74011;-54
2024/02/03 02:14:22;;;;;;;8.10;0.90;;;;;;;1.32;100.00;100023.50;104906;1254;65564;-53
2024/02/03 02:16:50;;;;;;;11.20;1.40;;;;;;;1.30;100.00;100022.98;104936;1257;71809;-54
2024/02/03 02:19:18;;;;;;;4.50;0.70;;;;;;;1.29;100.00;100018.21;105044;1259;61206;-55
2024/02/03 02:21:46;;;;;;;7.10;0.70;;;;;;;1.29;100.00;100013.09;106825;1253;60546;-55
2024/02/03 02:24:15;;;;;;;5.00;0.90;;;;;;;1.30;100.00;100001.41;104705;1260;73111;-55
2024/02/03 02:26:43;;;;;;;6.00;0.70;;;;;;;1.30;100.00;100002.13;105196;1259;65756;-55
2024/02/03 02:29:10;;;;;;;5.30;0.80;;;;;;;1.32;100.00;99998.58;104712;1253;72468;-55
2024/02/03 02:31:37;;;;;;;5.90;0.80;;;;;;;1.34;100.00;99997.16;104730;1259;62310;-55
2024/02/03 02:34:05;;;;;;;7.20;1.30;;;;;;;1.35;100.00;99992.02;105030;1254;61093;-55
2024/02/03 02:36:32;;;;;;;6.40;1.00;;;;;;;1.36;100.00;99986.71;105684;1253;74341;-55
2024/02/03 02:39:00;;;;;;;6.40;1.00;;;;;;;1.37;100.00;99980.67;105096;1254;65683;-54
2024/02/03 02:41:27;;;;;;;5.40;0.90;;;;;;;1.38;100.00;99976.08;104820;1257;71482;-55
2024/02/03 02:43:54;;;;;;;8.80;0.90;;;;;;;1.38;100.00;99979.25;104883;1256;60427;-55
2024/02/03 02:46:26;;;;;;;6.80;0.80;;;;;;;1.38;100.00;99976.77;104932;1253;60372;-55
2024/02/03 02:48:54;;;;;;;7.50;1.00;;;;;;;1.37;100.00;99976.08;105112;1254;73244;-55
2024/02/03 02:51:22;;;;;;;6.10;1.10;;;;;;;1.36;100.00;99967.95;105255;1254;65646;-55
2024/02/03 02:53:49;;;;;;;5.60;0.80;;;;;;;1.36;100.00;99959.66;104845;1258;71092;-55
2024/02/03 02:56:17;;;;;;;6.30;0.70;;;;;;;1.36;100.00;99952.73;105002;1260;60905;-55
2024/02/03 02:58:44;;;;;;;10.40;1.10;;;;;;;1.37;100.00;99942.11;105041;1260;60740;-54
2024/02/03 03:01:12;;;;;;;8.60;0.70;;;;;;;1.39;100.00;99932.92;105037;1258;74300;-54
2024/02/03 03:03:39;;;;;;;6.50;0.90;;;;;;;1.41;100.00;99922.66;105737;1257;66892;-55
2024/02/03 03:06:07;;;;;;;4.60;1.00;;;;;;;1.41;100.00;99920.17;105147;1259;70824;-55
2024/02/03 03:08:34;;;;;;;8.70;1.00;;;;;;;1.42;100.00;99913.63;105026;1261;60428;-55
2024/02/03 03:11:02;;;;;;;5.20;0.90;;;;;;;1.43;100.00;99915.03;104969;1254;60544;-55
2024/02/03 03:13:29;;;;;;;4.60;0.90;;;;;;;1.44;100.00;99918.05;104662;1258;72197;-56
2024/02/03 03:15:56;;;;;;;5.00;0.80;;;;;;;1.44;100.00;99911.86;104887;1254;65998;-55
2024/02/03 03:18:24;;;;;;;3.90;0.70;;;;;;;1.41;100.00;99906.73;104939;1255;71624;-55
2024/02/03 03:20:51;;;;;;;8.60;0.80;;;;;;;1.41;100.00;99898.79;107556;1258;60993;-56
2024/02/03 03:23:19;;;;;;;9.50;0.70;;;;;;;1.41;100.00;99895.07;104610;1254;60462;-56
2024/02/03 03:25:46;;;;;;;8.10;0.90;;;;;;;1.40;100.00;99889.77;104872;1258;72702;-56
2024/02/03 03:28:14;;;;;;;5.60;0.80;;;;;;;1.41;100.00;99887.46;104670;1256;67050;-54
2024/02/03 03:30:41;;;;;;;9.40;1.00;;;;;;;1.42;100.00;99890.11;104913;1258;73219;-55
2024/02/03 03:33:09;;;;;;;7.50;1.70;;;;;;;1.46;100.00;99886.00;104796;1259;60973;-56
2024/02/03 03:35:36;;;;;;;9.60;1.20;;;;;;;1.49;100.00;99888.27;104861;1259;60436;-55
2024/02/03 03:38:06;;;;;;;10.50;1.00;;;;;;;1.50;100.00;99880.48;104978;1258;72161;-55
2024/02/03 03:40:34;;;;;;;6.40;1.00;;;;;;;1.52;100.00;99874.11;104913;1253;66731;-55
2024/02/03 03:43:04;;;;;;;6.40;1.00;;;;;;;1.52;100.00;99871.45;104748;1259;72771;-57
2024/02/03 03:45:31;;;;;;;5.20;0.90;;;;;;;1.51;100.00;99867.39;104717;1253;61070;-56
2024/02/03 03:47:59;;;;;;;11.60;1.10;;;;;;;1.48;100.00;99866.52;104901;1254;60537;-56
2024/02/03 03:50:26;;;;;;;7.30;0.90;;;;;;;1.46;100.00;99864.06;104873;1255;73825;-56
2024/02/03 03:52:53;;;;;;;9.60;0.90;;;;;;;1.44;100.00;99857.92;104954;1253;65935;-54
2024/02/03 03:55:21;;;;;;;5.40;0.90;;;;;;;1.41;100.00;99854.05;104981;1258;72670;-55
2024/02/03 03:57:48;;;;;;;12.90;2.70;;;;;;;1.39;100.00;99852.64;104847;1258;60986;-54
2024/02/03 04:00:16;;;;;;;12.80;2.90;;;;;;;1.37;100.00;99850.36;104998;1253;60546;-54
2024/02/03 04:02:44;;;;;;;9.60;1.50;;;;;;;1.35;100.00;99847.75;106232;1258;73071;-55
2024/02/03 04:05:11;;;;;;;7.40;1.20;;;;;;;1.35;100.00;99833.25;104869;1258;65624;-55
2024/02/03 04:07:38;;;;;;;6.80;1.30;;;;;;;1.35;100.00;99823.52;104665;1258;71787;-55
2024/02/03 04:10:06;;;;;;;8.00;1.10;;;;;;;1.36;100.00;99814.14;104889;1254;61461;-55
2024/02/03 04:12:33;;;;;;;8.20;1.50;;;;;;;1.36;100.00;99804.59;108894;1253;60269;-57
2024/02/03 04:15:01;;;;;;;7.30;1.40;;;;;;;1.35;100.00;99790.11;108916;1253;72704;-56
2024/02/03 04:17:31;;;;;;;5.40;1.00;;;;;;;1.36;100.00;99784.26;106174;1258;65745;-57
2024/02/03 04:19:58;;;;;;;10.40;1.80;;;;;;;1.36;100.00;99773.13;104823;1258;71315;-54
2024/02/03 04:22:26;;;;;;;5.30;1.00;;;;;;;1.34;100.00;99772.09;104710;1258;61420;-56
2024/02/03 04:24:53;;;;;;;8.70;1.50;;;;;;;1.32;100.00;99762.55;104876;1254;60562;-55
2024/02/03 04:27:21;;;;;;;5.00;1.00;;;;;;;1.30;100.00;99752.30;104975;1260;74283;-54
2024/02/03 04:29:48;;;;;;;7.00;1.40;;;;;;;1.30;100.00;99753.20;104860;1256;66082;-56
2024/02/03 04:32:16;;;;;;;5.30;1.20;;;;;;;1.29;100.00;99751.96;104838;1256;72757;-55
2024/02/03 04:34:43;;;;;;;11.70;1.40;;;;;;;1.29;100.00;99750.02;105050;1255;60541;-57
2024/02/03 04:37:11;;;;;;;4.50;1.00;;;;;;;1.31;100.00;99744.17;104680;1254;60310;-54
2024/02/03 04:39:38;;;;;;;7.10;1.50;;;;;;;1.32;100.00;99740.63;104841;1259;73920;-53
2024/02/03 04:42:06;;;;;;;8.20;1.30;;;;;;;1.33;100.00;99727.89;104866;1254;67845;-53
2024/02/03 04:44:33;;;;;;;7.70;1.40;;;;;;;1.34;100.00;99720.64;108870;1254;72953;-56
2024/02/03 04:47:00;;;;;;;10.10;1.30;;;;;;;1.35;100.00;99713.38;108948;1254;58505;-57
2024/02/03 04:49:28;;;;;;;8.90;1.50;;;;;;;1.36;100.00;99706.98;108921;1254;60001;-55
2024/02/03 04:51:55;;;;;;;5.50;1.90;;;;;;;1.36;100.00;99695.13;108953;1255;72661;-55
2024/02/03 04:54:23;;;;;;;5.50;1.30;;;;;;;1.34;100.00;99682.98;108934;1254;67011;-55
2024/02/03 04:56:50;;;;;;;5.50;1.10;;;;;;;1.33;100.00;99681.05;107618;1258;71447;-55
2024/02/03 04:59:17;;;;;;;7.30;1.20;;;;;;;1.31;100.00;99662.67;105034;1254;60917;-54
2024/02/03 05:01:44;;;;;;;7.40;1.20;;;;;;;1.29;100.00;99650.67;104870;1255;60563;-54
2024/02/03 05:04:12;;;;;;;7.00;1.40;;;;;;;1.27;100.00;99647.70;104875;1258;74543;-56
2024/02/03 05:06:39;;;;;;;5.60;1.00;;;;;;;1.26;100.00;99642.59;104874;1260;65429;-53
2024/02/03 05:09:08;;;;;;;3.30;1.10;;;;;;;1.27;100.00;99636.23;105251;1257;73193;-55
2024/02/03 05:11:35;;;;;;;6.40;1.10;;;;;;;1.26;100.00;99632.88;105032;1255;60842;-53
2024/02/03 05:14:03;;;;;;;3.50;1.00;;;;;;;1.26;100.00;99626.15;104758;1254;60592;-55
2024/02/03 05:16:30;;;;;;;5.10;1.20;;;;;;;1.26;100.00;99621.56;104738;1258;73003;-56
2024/02/03 05:18:58;;;;;;;6.50;1.20;;;;;;;1.26;100.00;99607.77;104791;1258;65664;-55
2024/02/03 05:21:26;;;;;;;9.00;1.30;;;;;;;1.27;100.00;99599.99;104748;1258;70659;-54
2024/02/03 05:23:53;;;;;;;7.00;1.70;;;;;;;1.26;100.00;99602.82;104536;1253;60623;-54
2024/02/03 05:26:20;;;;;;;4.50;1.50;;;;;;;1.25;100.00;99598.94;104982;1253;60406;-53
2024/02/03 05:28:48;;;;;;;3.80;1.40;;;;;;;1.24;100.00;99585.34;104892;1253;72659;-55
2024/02/03 05:31:21;;;;;;;5.30;1.40;;;;;;;1.23;100.00;99585.00;105014;1256;67127;-55
2024/02/03 05:33:49;;;;;;;7.70;1.40;;;;;;;1.21;100.00;99580.77;107214;1256;70586;-53
2024/02/03 05:36:16;;;;;;;8.00;1.60;;;;;;;1.21;100.00;99576.70;105010;1253;61290;-55
2024/02/03 05:38:43;;;;;;;5.50;1.20;;;;;;;1.20;100.00;99573.72;104720;1254;60624;-55
2024/02/03 05:41:11;;;;;;;4.00;1.40;;;;;;;1.19;100.00;99573.23;104687;1255;76101;-56
2024/02/03 05:43:38;;;;;;;6.40;1.30;;;;;;;1.18;100.00;99569.88;104774;1254;66007;-56
2024/02/03 05:46:06;;;;;;;5.50;1.40;;;;;;;1.17;100.00;99564.59;104984;1259;72755;-54
2024/02/03 05:48:33;;;;;;;6.80;1.30;;;;;;;1.19;100.00;99563.33;104984;1253;60521;-57
2024/02/03 05:51:00;;;;;;;4.50;1.50;;;;;;;1.19;100.00;99560.30;104784;1255;60448;-54
2024/02/03 05:53:30;;;;;;;5.20;0.90;;;;;;;1.19;100.00;99559.08;104829;1258;72855;-54
2024/02/03 05:55:58;;;;;;;3.70;1.50;;;;;;;1.19;100.00;99553.61;104814;1253;68179;-56
2024/02/03 05:58:25;;;;;;;3.50;1.30;;;;;;;1.17;100.00;99550.27;105566;1255;72543;-55
2024/02/03 06:00:54;;;;;;;4.10;1.00;;;;;;;1.14;100.00;99546.58;104888;1253;61345;-56
2024/02/03 06:03:24;;;;;;;3.50;1.10;;;;;;;1.12;100.00;99553.67;105683;1254;60455;-54
2024/02/03 06:05:52;;;;;;;5.00;1.30;;;;;;;1.13;100.00;99554.38;105029;1259;72647;-53
2024/02/03 06:08:41;;;;;;;3.50;1.20;;;;;;;1.14;100.00;99542.88;105766;1253;65790;-55
2024/02/03 06:11:09;;;;;;;4.40;1.00;;;;;;;1.14;100.00;99543.23;104737;1254;72602;-55
2024/02/03 06:13:37;;;;;;;1.50;1.10;;;;;;;1.14;100.00;99540.39;105395;1257;61682;-54
2024/02/03 06:16:04;;;;;;;3.40;1.10;;;;;;;1.14;100.00;99536.33;104692;1253;60605;-53
2024/02/03 06:18:31;;;;;;;2.10;0.90;;;;;;;1.14;100.00;99534.92;104824;1253;73909;-54
2024/02/03 06:20:59;;;;;;;6.30;1.10;;;;;;;1.14;100.00;99537.92;105481;1255;66932;-55
2024/02/03 06:23:26;;;;;;;6.00;1.30;;;;;;;1.15;100.00;99532.27;104649;1254;72766;-56
2024/02/03 06:25:55;;;;;;;3.90;1.00;;;;;;;1.17;100.00;99529.24;104801;1256;60557;-54
2024/02/03 06:28:24;;;;;;;6.40;1.00;;;;;;;1.18;100.00;99530.64;104986;1256;60449;-54
2024/02/03 06:30:51;;;;;;;5.40;1.10;;;;;;;1.19;100.00;99522.66;104829;1256;73948;-53
2024/02/03 06:33:19;;;;;;;4.60;1.20;;;;;;;1.21;100.00;99519.62;104982;1255;67049;-53
2024/02/03 06:35:46;;;;;;;3.00;0.90;;;;;;;1.21;100.00;99517.86;104834;1256;71533;-55
2024/02/03 06:38:14;;;;;;;4.00;2.50;;;;;;;1.21;100.00;99509.89;104724;1256;61298;-55
2024/02/03 06:40:42;;;;;;;4.00;1.00;;;;;;;1.22;100.00;99501.75;104648;1254;60568;-53
2024/02/03 06:43:09;;;;;;;4.20;1.00;;;;;;;1.23;100.00;99497.15;104970;1256;73925;-53
2024/02/03 06:45:36;;;;;;;5.10;1.10;;;;;;;1.24;100.00;99488.66;104768;1257;67306;-54
2024/02/03 06:48:04;;;;;;;2.30;0.90;;;;;;;1.25;100.00;99482.98;104723;1256;73007;-57
2024/02/03 06:50:32;;;;;;;4.10;1.10;;;;;;;1.27;100.00;99479.59;105122;1256;60709;-55
2024/02/03 06:53:03;;;;;;;2.40;1.10;;;;;;;1.28;100.00;99477.98;104813;1258;60731;-55
2024/02/03 06:55:30;;;;;;;4.50;1.30;;;;;;;1.28;100.00;99469.48;105183;1256;74299;-57
2024/02/03 06:57:57;;;;;;;3.30;1.20;;;;;;;1.29;100.00;99462.05;104959;1254;67317;-57
2024/02/03 07:00:25;;;;;;;7.10;1.60;;;;;;;1.29;100.00;99457.63;105895;1256;72694;-57
2024/02/03 07:02:52;;;;;;;2.10;0.90;;;;;;;1.27;100.00;99456.79;106520;1256;60565;-55
2024/02/03 07:05:20;;;;;;;2.30;1.30;;;;;;;1.26;100.00;99454.52;104913;1255;60522;-54
2024/02/03 07:07:47;;;;;;;3.70;2.50;;;;;;;1.25;100.00;99443.21;104977;1259;74595;-55
2024/02/03 07:10:14;;;;;;;4.70;1.80;;;;;;;1.26;100.00;99439.48;104770;1254;66768;-57
2024/02/03 07:12:41;;;;;;;8.40;3.40;;;;;;;1.27;100.00;99429.05;104603;1256;71174;-58
2024/02/03 07:15:09;;;;;;;11.20;3.60;;;;;;;1.28;100.00;99421.04;104877;1254;60524;-58
2024/02/03 07:17:36;;;;;;;9.00;2.80;;;;;;;1.29;100.00;99418.21;104727;1258;60457;-53
2024/02/03 07:20:04;;;;;;;5.80;3.00;;;;;;;1.31;100.00;99410.59;104872;1256;72792;-56
2024/02/03 07:22:32;;;;;;;6.50;1.80;;;;;;;1.33;100.00;99411.79;104695;1256;66120;-56
2024/02/03 07:24:59;;;;;;;3.00;1.40;;;;;;;1.36;100.00;99412.80;104552;1258;72768;-56
2024/02/03 07:27:26;;;;;;;3.00;1.40;;;;;;;1.37;100.00;99408.00;104820;1256;60614;-54
2024/02/03 07:29:54;;;;;;;2.80;1.20;;;;;;;1.38;100.00;99407.09;104620;1255;60665;-57
2024/02/03 07:32:21;;;;;;;2.70;1.20;;;;;;;1.39;100.00;99398.23;104804;1261;74753;-57
2024/02/03 07:34:48;;;;;;;2.90;1.20;;;;;;;1.42;100.00;99399.98;104770;1260;65680;-58
2024/02/03 07:37:16;;;;;;;3.80;1.20;;;;;;;1.43;100.00;99407.91;108930;1255;72714;-56
2024/02/03 07:39:43;;;;;;;4.40;1.40;;;;;;;1.44;100.00;99399.42;108905;1254;60885;-58
2024/02/03 07:42:11;;;;;;;1.60;1.00;;;;;;;1.44;100.00;99395.34;108809;1256;60094;-56
2024/02/03 07:44:38;;;;;;;2.50;1.00;;;;;;;1.45;100.00;99401.31;108790;1254;72607;-57
2024/02/03 07:47:06;;;;;;;3.30;1.30;;;;;;;1.46;100.00;99391.39;108905;1255;66825;-58
2024/02/03 07:49:33;;;;;;;2.00;0.90;;;;;;;1.47;100.00;99383.95;108888;1256;73280;-57
2024/02/03 07:52:00;;;;;;;2.10;1.30;;;;;;;1.47;100.00;99381.13;108951;1255;59676;-57
2024/02/03 07:54:30;;;;;;;5.70;0.90;;;;;;;1.50;100.00;99380.38;108976;1254;60032;-58
2024/02/03 07:56:58;;;;;;;1.60;1.00;;;;;;;1.53;100.00;99378.40;108848;1256;74222;-57
2024/02/03 07:59:27;;;;;;;1.80;0.90;;;;;;;1.53;100.00;99370.60;108167;1260;67464;-56
2024/02/03 08:01:55;;;;;;;2.10;1.20;;;;;;;1.54;100.00;99361.02;104539;1258;71480;-57
2024/02/03 08:04:22;;;;;;;2.90;1.10;;;;;;;1.53;100.00;99352.38;104730;1256;61366;-57
2024/02/03 08:06:50;;;;;;;1.90;1.00;;;;;;;1.54;100.00;99345.80;104512;1261;61496;-58
2024/02/03 08:09:17;;;;;;;2.10;1.00;;;;;;;1.56;100.00;99339.77;104691;1260;72781;-58
2024/02/03 08:11:44;;;;;;;1.40;1.00;;;;;;;1.57;100.00;99341.16;105018;1256;67012;-56
2024/02/03 08:14:12;;;;;;;2.50;0.90;;;;;;;1.58;100.00;99339.02;104746;1256;71462;-57
2024/02/03 08:16:39;;;;;;;1.80;1.10;;;;;;;1.58;100.00;99338.86;104889;1259;60557;-57
2024/02/03 08:19:07;;;;;;;2.20;1.40;;;;;;;1.58;100.00;99335.31;104851;1260;60470;-57
2024/02/03 08:21:36;;;;;;;2.20;1.10;;;;;;;1.58;100.00;99332.48;104793;1260;74267;-59
2024/02/03 08:24:04;;;;;;;3.10;1.50;;;;;;;1.58;100.00;99330.54;105095;1254;66151;-59
2024/02/03 08:26:31;;;;;;;3.60;1.20;;;;;;;1.59;100.00;99327.34;105016;1256;74504;-58
2024/02/03 08:28:59;;;;;;;1.60;0.90;;;;;;;1.60;100.00;99325.73;104984;1260;61330;-58
2024/02/03 08:31:26;;;;;;;3.40;1.00;;;;;;;1.60;100.00;99322.73;104733;1258;60630;-57
2024/02/03 08:33:53;;;;;;;2.70;1.20;;;;;;;1.61;100.00;99319.34;104781;1256;73849;-58
2024/02/03 08:36:22;;;;;;;1.40;0.80;;;;;;;1.63;100.00;99309.56;104973;1259;66285;-58
2024/02/03 08:38:51;;;;;;;1.50;0.80;;;;;;;1.65;100.00;99312.73;106146;1255;71497;-59
2024/02/03 08:41:18;;;;;;;2.20;0.90;;;;;;;1.66;100.00;99314.65;104902;1261;62577;-57
2024/02/03 08:43:45;;;;;;;2.90;1.30;;;;;;;1.68;100.00;99304.36;104573;1258;64392;-54
2024/02/03 08:46:13;;;;;;;2.80;1.20;;;;;;;1.71;100.00;99288.20;104802;1254;74350;-57
2024/02/03 08:48:40;;;;;;;1.30;0.70;;;;;;;1.74;100.00;99283.70;105011;1254;67050;-57
2024/02/03 08:51:08;;;;;;;1.50;0.90;;;;;;;1.77;100.00;99280.83;104867;1255;70140;-56
2024/02/03 08:53:35;;;;;;;1.30;0.70;;;;;;;1.79;100.00;99279.69;104872;1256;65833;-56
2024/02/03 08:56:06;;;;;;;1.20;0.90;;;;;;;1.82;100.00;99279.46;105058;1259;60372;-55
2024/02/03 08:58:33;;;;;;;1.50;1.30;;;;;;;1.86;100.00;99280.98;105255;1254;74328;-58
2024/02/03 09:01:01;;;;;;;2.10;1.10;;;;;;;1.90;100.00;99273.82;104864;1258;65495;-56
2024/02/03 09:03:28;;;;;;;1.10;0.90;;;;;;;1.93;100.00;99269.52;104941;1256;70473;-56
2024/02/03 09:05:56;;;;;;;3.00;0.80;;;;;;;1.96;100.00;99264.30;104864;1256;60883;-55
2024/02/03 09:08:23;;;;;;;3.90;0.90;;;;;;;1.98;100.00;99254.34;104963;1258;60527;-56
2024/02/03 09:10:51;;;;;;;1.10;0.70;;;;;;;2.01;100.00;99252.71;104543;1258;73977;-56
2024/02/03 09:13:18;;;;;;;2.00;0.80;;;;;;;2.05;100.00;99251.35;104855;1254;65906;-56
2024/02/03 09:15:45;;;;;;;2.30;0.90;;;;;;;2.07;100.00;99244.06;104611;1256;73792;-56
2024/02/03 09:18:13;;;;;;;1.90;0.70;;;;;;;2.10;100.00;99243.66;104670;1256;60964;-58
2024/02/03 09:20:40;;;;;;;1.10;0.70;;;;;;;2.13;100.00;99233.67;105065;1256;60565;-56
2024/02/03 09:23:08;;;;;;;2.10;0.80;;;;;;;2.15;100.00;99229.02;104836;1258;72682;-55
2024/02/03 09:25:39;;;;;;;1.60;0.70;;;;;;;2.17;100.00;99223.67;104665;1258;66159;-58
2024/02/03 09:28:08;;;;;;;3.60;0.90;;;;;;;2.20;100.00;99217.60;105625;1258;72791;-54
2024/02/03 09:30:35;;;;;;;1.80;0.90;;;;;;;2.23;100.00;99203.70;104622;1259;60608;-58
2024/02/03 09:33:03;;;;;;;1.30;0.80;;;;;;;2.25;100.00;99202.59;104794;1253;61793;-57
2024/02/03 09:38:16;;;;;;;1.40;0.80;;;;;;;2.34;100.00;99266.30;102005;1295;600412;-59
2024/02/03 09:40:43;;;;;;;1.80;0.90;;;;;;;2.38;100.00;99259.49;104073;1270;59708;-55
2024/02/03 09:43:11;;;;;;;2.90;0.80;;;;;;;2.42;100.00;99249.82;104211;1266;60496;-55
2024/02/03 09:45:38;;;;;;;1.20;0.90;;;;;;;2.44;100.00;99246.77;103871;1267;72188;-58
2024/02/03 09:48:06;;;;;;;1.40;0.80;;;;;;;2.46;100.00;99241.23;104050;1271;67509;-53
2024/02/03 09:50:33;;;;;;;2.50;1.00;;;;;;;2.48;100.00;99236.56;105482;1271;71469;-58
2024/02/03 09:53:01;;;;;;;1.10;0.80;;;;;;;2.50;100.00;99229.25;104302;1266;170082;-55
2024/02/03 09:55:28;;;;;;;1.40;0.80;;;;;;;2.52;100.00;99224.79;104292;1264;59474;-58
2024/02/03 09:57:56;;;;;;;1.00;0.70;;;;;;;2.54;100.00;99217.14;104017;1264;71027;-55
2024/02/03 10:00:25;;;;;;;1.20;0.90;;;;;;;2.55;100.00;99210.18;104503;1267;66078;-54
2024/02/03 10:02:53;;;;;;;1.10;0.70;;;;;;;2.57;100.00;99207.48;104162;1266;71113;-54
2024/02/03 10:05:30;;;;;;;0.90;0.70;;;;;;;2.60;100.00;99200.86;104296;1267;59818;-54
2024/02/03 10:08:05;;;;;;;1.30;0.80;;;;;;;2.61;100.00;99193.04;108576;1260;58836;-55
2024/02/03 10:10:38;;;;;;;0.90;0.60;;;;;;;2.61;100.00;99181.52;104627;1259;73019;-57
2024/02/03 10:13:09;;;;;;;2.20;0.80;;;;;;;2.63;100.00;99175.98;104525;1260;65656;-52
2024/02/03 10:15:37;;;;;;;0.90;0.60;;;;;;;2.64;100.00;99175.06;104440;1260;71844;-53
2024/02/03 10:18:06;;;;;;;1.10;0.80;;;;;;;2.65;100.00;99167.05;104564;1261;59778;-53
2024/02/03 10:20:35;;;;;;;1.20;0.80;;;;;;;2.67;100.00;99158.70;108593;1260;60224;-55
2024/02/03 10:23:02;;;;;;;0.80;0.70;;;;;;;2.69;100.00;99157.24;108553;1260;71945;-54
2024/02/03 10:25:31;;;;;;;1.20;0.60;;;;;;;2.70;100.00;99155.09;108599;1260;66143;-55
2024/02/03 10:28:08;;;;;;;2.00;0.80;;;;;;;2.72;100.00;99144.05;108523;1260;71463;-53
2024/02/03 10:30:36;;;;;;;2.40;1.40;;;;;;;2.76;100.00;99141.09;108564;1260;61361;-55
2024/02/03 10:33:04;;;;;;;1.00;0.60;;;;;;;2.79;100.00;99139.61;107885;1263;60088;-51
2024/02/03 10:35:33;;;;;;;2.00;0.60;;;;;;;2.82;100.00;99137.75;108601;1260;73295;-55
2024/02/03 10:38:01;;;;;;;0.70;0.60;;;;;;;2.84;100.00;99132.54;108499;1263;64688;-54
2024/02/03 10:40:29;;;;;;;0.70;0.60;;;;;;;2.87;100.00;99122.90;108563;1262;72776;-55
2024/02/03 10:42:57;;;;;;;1.30;0.80;;;;;;;2.92;100.00;99116.55;108652;1262;62503;-59
2024/02/03 10:45:30;;;;;;;0.70;0.60;;;;;;;2.96;100.00;99120.71;108758;1262;60511;-53
2024/02/03 10:48:01;;;;;;;0.60;0.60;;;;;;;2.99;100.00;99121.50;108538;1262;73409;-54
2024/02/03 10:50:40;;;;;;;0.70;0.50;;;;;;;3.01;100.00;99124.45;105625;1261;67062;-57
2024/02/03 10:53:31;;;;;;;0.60;0.50;;;;;;;3.03;100.00;99125.46;104364;1266;70853;-52
2024/02/03 10:56:00;;;;;;;0.80;0.60;;;;;;;3.06;100.00;99121.47;104478;1266;62019;-55
2024/02/03 10:58:29;;;;;;;0.80;0.60;;;;;;;3.10;100.00;99109.86;104494;1263;60056;-54
2024/02/03 11:00:59;;;;;;;1.60;0.70;;;;;;;3.12;100.00;99114.23;104608;1269;71623;-54
2024/02/03 11:03:37;;;;;;;0.80;0.50;;;;;;;3.13;100.00;99111.89;104370;1263;65648;-57
2024/02/03 11:06:06;;;;;;;0.90;0.70;;;;;;;3.17;100.00;99109.10;104282;1263;72899;-55
2024/02/03 11:08:33;;;;;;;1.10;0.60;;;;;;;3.19;100.00;99102.50;105415;1261;59719;-54
2024/02/03 11:11:00;;;;;;;1.10;0.60;;;;;;;3.22;100.00;99097.83;104573;1267;60812;-58
2024/02/03 11:13:30;;;;;;;0.70;0.60;;;;;;;3.23;100.00;99101.86;104570;1266;71706;-55
2024/02/03 11:15:57;;;;;;;0.80;0.60;;;;;;;3.26;100.00;99109.03;104658;1263;64870;-56
2024/02/03 11:18:26;;;;;;;1.10;0.70;;;;;;;3.29;100.00;99108.60;105138;1264;71421;-59
2024/02/03 11:21:07;;;;;;;0.90;0.60;;;;;;;3.31;100.00;99106.77;105267;1263;59822;-58
2024/02/03 11:23:35;;;;;;;1.20;0.50;;;;;;;3.33;100.00;99108.98;104727;1266;59679;-54
2024/02/03 11:26:02;;;;;;;1.10;0.80;;;;;;;3.34;100.00;99106.64;104625;1263;73148;-54
2024/02/03 11:28:33;;;;;;;2.20;0.60;;;;;;;3.35;100.00;99098.11;104302;1263;66814;-53